Terminal Aerodrome Forecast
Issued by NWS

Home | Current Version | Previous Version | Text Only | Print | Product List | Glossary On
Versions: 1 2 3 4 5 6 7 8 9 10 11 12
000
FTUS44 KLZK 281100
TAFPBF
TAF
KPBF 281134Z 2812/2912 10004KT P6SM SKC
     FM281600 16010KT P6SM SKC
     FM290000 17010KT P6SM SCT250 WS020/20035KT
     FM290900 20010KT P6SM SCT250 WS020/24045KT=

USA.gov is the U.S. government's official web portal to all federal, state and local government web resources and services.